Quick Links (Output Below):   Max & Min Temps   /   Climate Reports   /   Zone Forecasts
River Forecasts   /   Forestry Forecasts   /   Aviation Forecasts   /   Radars   /   Features

Terminal Aerodrome Forecast (Mountain Home)

Pick a Site:
Arkadelphia | El Dorado | Fayetteville | Fort Smith | Harrison | Highfill | Hot Springs | Jonesboro
Little Rock | Monticello | Mountain Home | Pine Bluff | Texarkana
 Forecast 

KBPK 281121Z 2812/2912 VRB02KT 2SM BR SCT002 OVC008
      TEMPO 2812/2815 1/4SM FG VV002
     FM281500 32006KT P6SM VCTS SCT050CB
     FM290100 VRB03KT 3SM BR SCT012 BKN040
      TEMPO 2910/2912 1SM BR BKN012=


 Latest METARs (Observations) 
How to Decode METARs
12Z KBPK 281153Z AUTO 00000KT 1/2SM FG VV002 22/22 A2996 RMK AO2
         SLP137 70003 T02170217 10228 20217 53006
         
11Z KBPK 281053Z AUTO 00000KT 1/2SM FG VV002 22/22 A2995 RMK AO2
         SLP130 T02170217
         
10Z KBPK 280953Z AUTO 00000KT 2 1/2SM BR BKN001 OVC011 22/22 A2994 RMK
         AO2 SLP126 T02220222
         
09Z KBPK 280853Z AUTO 00000KT 1SM BR BKN003 OVC010 22/22 A2994 RMK AO2
         SLP127 T02220222 55003
         
08Z KBPK 280753Z AUTO 20003KT 9SM BKN110 22/22 A2994 RMK AO2 SLP127
         T02220222
         
07Z KBPK 280653Z AUTO 00000KT 10SM BKN110 23/22 A2994 RMK AO2 SLP125
         T02280222
         
06Z KBPK 280553Z AUTO 00000KT 10SM FEW090 23/22 A2995 RMK AO2 SLP131
         60001 T02280222 10233 20222 403280217 53003
         
05Z KBPK 280453Z AUTO 00000KT 10SM FEW049 22/22 A2996 RMK AO2 SLP133
         T02220222
         
04Z KBPK 280353Z AUTO 00000KT 10SM CLR 23/22 A2994 RMK AO2 SLP127
         T02280222
         
03Z KBPK 280253Z AUTO 00000KT 10SM FEW045 23/22 A2994 RMK AO2 SLP129
         60001 T02280222 53002
         
***** Today's Observations (Above) *****


Back to Main Page
http://www.srh.noaa.gov/lzk/qfcst.php

USA.gov is the U.S. government's official web portal to all federal, state and local government web resources and services.